Terminal Aerodrome Forecast
Issued by NWS

Home | Current Version | Previous Version | Text Only | Print | Product List | Glossary Off
Versions: 1 2 3 4 5 6 7 8 9 10 11 12 13 14 15 16 17 18 19 20 21 22 23 24

000
FTUS45 KRIW 240527
TAFBPI
TAF
KBPI 240527Z 2406/2506 31012G22KT P6SM VCSH SCT025 BKN050
      TEMPO 2406/2409 5SM -SN BKN025
     FM241000 33020G30KT P6SM VCSH BKN035
     FM241200 33014G24KT P6SM BKN040
     FM250100 35010KT P6SM BKN050=

USA.gov is the U.S. government's official web portal to all federal, state and local government web resources and services.